CPA903 RPLC-RPLL
Flight info
| Callsign | CPA903 |
|---|---|
| Flight time | 0h 22m |
| Altitude | 7000 |
| Route | OLIVA3F OLIVA OLIVA1D |
| Aircraft | A333/H-SDE3GHIJ2J3J5M1RVWXY/LB2D1 |
Departure
| Time | 2026-04-30 13:46 |
|---|---|
| Airport | Clark International Airport / Clark Air Base (RPLC) |
Arrival
| Time | 2026-04-30 14:08 |
|---|---|
| Airport | Ninoy Aquino International Airport (RPLL) |
| Time | Latitude | Longitude | Altitude | Speed | Heading |
|---|---|---|---|---|---|
| 2026-04-30 12:57 | 15.18717 | 120.55025 | 447 ft | 0 kts | 293° |
| 2026-04-30 13:28 | 15.18709 | 120.55043 | 447 ft | 3 kts | 297° |
| 2026-04-30 13:28 | 15.18686 | 120.55076 | 444 ft | 1 kts | 328° |
| 2026-04-30 13:28 | 15.18680 | 120.55084 | 446 ft | 1 kts | 9° |
| 2026-04-30 13:29 | 15.18676 | 120.55084 | 446 ft | 0 kts | 21° |
| 2026-04-30 13:35 | 15.18702 | 120.55100 | 446 ft | 7 kts | 35° |
| 2026-04-30 13:35 | 15.18812 | 120.55180 | 440 ft | 13 kts | 22° |
| 2026-04-30 13:36 | 15.18906 | 120.55217 | 441 ft | 4 kts | 21° |
| 2026-04-30 13:36 | 15.18917 | 120.55221 | 430 ft | 6 kts | 21° |
| 2026-04-30 13:36 | 15.19074 | 120.55316 | 433 ft | 13 kts | 55° |
| 2026-04-30 13:37 | 15.19113 | 120.55410 | 436 ft | 16 kts | 69° |
| 2026-04-30 13:37 | 15.19173 | 120.55576 | 439 ft | 4 kts | 96° |
| 2026-04-30 13:38 | 15.19023 | 120.55624 | 434 ft | 20 kts | 172° |
| 2026-04-30 13:38 | 15.18985 | 120.55652 | 427 ft | 9 kts | 124° |
| 2026-04-30 13:38 | 15.19185 | 120.55744 | 434 ft | 7 kts | 0° |
| 2026-04-30 13:39 | 15.19286 | 120.55784 | 434 ft | 11 kts | 21° |
| 2026-04-30 13:39 | 15.19474 | 120.55864 | 432 ft | 18 kts | 21° |
| 2026-04-30 13:40 | 15.19627 | 120.55925 | 428 ft | 29 kts | 21° |
| 2026-04-30 13:40 | 15.19818 | 120.56002 | 429 ft | 29 kts | 21° |
| 2026-04-30 13:40 | 15.19974 | 120.56110 | 433 ft | 25 kts | 61° |
| 2026-04-30 13:40 | 15.20068 | 120.56238 | 430 ft | 22 kts | 55° |
| 2026-04-30 13:41 | 15.20109 | 120.56398 | 416 ft | 25 kts | 81° |
| 2026-04-30 13:41 | 15.20137 | 120.56598 | 406 ft | 31 kts | 82° |
| 2026-04-30 13:41 | 15.20155 | 120.56711 | 404 ft | 0 kts | 81° |
| 2026-04-30 13:41 | 15.20156 | 120.56721 | 408 ft | 0 kts | 81° |
| 2026-04-30 13:44 | 15.20157 | 120.56748 | 407 ft | 13 kts | 92° |
| 2026-04-30 13:44 | 15.20140 | 120.56809 | 404 ft | 14 kts | 115° |
| 2026-04-30 13:45 | 15.20068 | 120.56826 | 407 ft | 0 kts | 202° |
| 2026-04-30 13:45 | 15.20032 | 120.56810 | 408 ft | 31 kts | 203° |
| 2026-04-30 13:46 | 15.19518 | 120.56606 | 420 ft | 125 kts | 201° |
| 2026-04-30 13:46 | 15.18489 | 120.56197 | 746 ft | 172 kts | 201° |
| 2026-04-30 13:46 | 15.17354 | 120.55741 | 1541 ft | 176 kts | 201° |
| 2026-04-30 13:46 | 15.16261 | 120.55284 | 2457 ft | 170 kts | 201° |
| 2026-04-30 13:47 | 15.15100 | 120.54788 | 3041 ft | 188 kts | 201° |
| 2026-04-30 13:47 | 15.13794 | 120.54383 | 3497 ft | 206 kts | 179° |
| 2026-04-30 13:47 | 15.12389 | 120.54771 | 3906 ft | 224 kts | 146° |
| 2026-04-30 13:47 | 15.11131 | 120.55832 | 4347 ft | 244 kts | 133° |
| 2026-04-30 13:48 | 15.09921 | 120.57163 | 4721 ft | 263 kts | 130° |
| 2026-04-30 13:48 | 15.08649 | 120.58585 | 5353 ft | 270 kts | 131° |
| 2026-04-30 13:48 | 15.07326 | 120.59992 | 6171 ft | 272 kts | 133° |
| 2026-04-30 13:48 | 15.05983 | 120.61361 | 6796 ft | 275 kts | 133° |
| 2026-04-30 13:49 | 15.04706 | 120.62633 | 6974 ft | 277 kts | 134° |
| 2026-04-30 13:49 | 15.03303 | 120.64013 | 7032 ft | 277 kts | 134° |
| 2026-04-30 13:49 | 15.01918 | 120.65369 | 7035 ft | 277 kts | 134° |
| 2026-04-30 13:49 | 15.00518 | 120.66742 | 7041 ft | 278 kts | 134° |
| 2026-04-30 13:50 | 14.99117 | 120.68119 | 7031 ft | 277 kts | 134° |
| 2026-04-30 13:50 | 14.96327 | 120.70864 | 7030 ft | 277 kts | 135° |
| 2026-04-30 13:50 | 14.94701 | 120.71945 | 7034 ft | 283 kts | 158° |
| 2026-04-30 13:51 | 14.92773 | 120.72395 | 7029 ft | 285 kts | 167° |
| 2026-04-30 13:51 | 14.90850 | 120.72764 | 7027 ft | 285 kts | 167° |
| 2026-04-30 13:51 | 14.88900 | 120.73138 | 7025 ft | 285 kts | 167° |
| 2026-04-30 13:51 | 14.86937 | 120.73477 | 7019 ft | 286 kts | 174° |
| 2026-04-30 13:52 | 14.84942 | 120.73283 | 7023 ft | 290 kts | 187° |
| 2026-04-30 13:52 | 14.82955 | 120.72950 | 7021 ft | 289 kts | 187° |
| 2026-04-30 13:52 | 14.81642 | 120.72726 | 7022 ft | 289 kts | 187° |
| 2026-04-30 13:52 | 14.79649 | 120.72388 | 7023 ft | 290 kts | 187° |
| 2026-04-30 13:53 | 14.77657 | 120.72048 | 7021 ft | 290 kts | 187° |
| 2026-04-30 13:53 | 14.75664 | 120.71703 | 7019 ft | 290 kts | 187° |
| 2026-04-30 13:53 | 14.73672 | 120.71358 | 7016 ft | 290 kts | 187° |
| 2026-04-30 13:53 | 14.71678 | 120.71014 | 7018 ft | 290 kts | 187° |
| 2026-04-30 13:54 | 14.69708 | 120.70674 | 7016 ft | 290 kts | 187° |
| 2026-04-30 13:54 | 14.67717 | 120.70328 | 7017 ft | 290 kts | 187° |
| 2026-04-30 13:54 | 14.65718 | 120.69982 | 7018 ft | 291 kts | 187° |
| 2026-04-30 13:54 | 14.63718 | 120.69634 | 7016 ft | 290 kts | 187° |
| 2026-04-30 13:55 | 14.61722 | 120.69285 | 7014 ft | 290 kts | 187° |
| 2026-04-30 13:55 | 14.59753 | 120.68936 | 7016 ft | 292 kts | 189° |
| 2026-04-30 13:55 | 14.57756 | 120.68602 | 7015 ft | 290 kts | 187° |
| 2026-04-30 13:55 | 14.55799 | 120.68037 | 7018 ft | 293 kts | 197° |
| 2026-04-30 13:56 | 14.53888 | 120.67351 | 7016 ft | 283 kts | 197° |
| 2026-04-30 13:56 | 14.52097 | 120.66698 | 7014 ft | 261 kts | 197° |
| 2026-04-30 13:56 | 14.50464 | 120.66097 | 7015 ft | 247 kts | 197° |
| 2026-04-30 13:56 | 14.48830 | 120.65496 | 7017 ft | 249 kts | 197° |
| 2026-04-30 13:57 | 14.47201 | 120.64893 | 7003 ft | 247 kts | 197° |
| 2026-04-30 13:57 | 14.45591 | 120.64298 | 6900 ft | 241 kts | 197° |
| 2026-04-30 13:57 | 14.44043 | 120.63724 | 6819 ft | 231 kts | 197° |
| 2026-04-30 13:57 | 14.42572 | 120.63173 | 6753 ft | 222 kts | 197° |
| 2026-04-30 13:58 | 14.41140 | 120.62634 | 6678 ft | 216 kts | 197° |
| 2026-04-30 13:58 | 14.38326 | 120.61581 | 6344 ft | 214 kts | 195° |
| 2026-04-30 13:58 | 14.36905 | 120.61480 | 6146 ft | 206 kts | 160° |
| 2026-04-30 13:59 | 14.35737 | 120.62234 | 5953 ft | 197 kts | 122° |
| 2026-04-30 13:59 | 14.35253 | 120.63492 | 5841 ft | 185 kts | 96° |
| 2026-04-30 13:59 | 14.35056 | 120.64778 | 5704 ft | 180 kts | 98° |
| 2026-04-30 13:59 | 14.34596 | 120.65982 | 5493 ft | 181 kts | 112° |
| 2026-04-30 14:00 | 14.34018 | 120.67141 | 5295 ft | 182 kts | 115° |
| 2026-04-30 14:00 | 14.33245 | 120.69548 | 5038 ft | 192 kts | 75° |
| 2026-04-30 14:00 | 14.33783 | 120.70847 | 5018 ft | 199 kts | 62° |
| 2026-04-30 14:01 | 14.34450 | 120.72093 | 4949 ft | 196 kts | 60° |
| 2026-04-30 14:01 | 14.35125 | 120.73316 | 4700 ft | 196 kts | 60° |
| 2026-04-30 14:01 | 14.35798 | 120.74545 | 4409 ft | 197 kts | 60° |
| 2026-04-30 14:01 | 14.36462 | 120.75777 | 4140 ft | 196 kts | 61° |
| 2026-04-30 14:02 | 14.37110 | 120.76991 | 3902 ft | 195 kts | 62° |
| 2026-04-30 14:02 | 14.37760 | 120.78224 | 3610 ft | 196 kts | 63° |
| 2026-04-30 14:02 | 14.38408 | 120.79449 | 3410 ft | 192 kts | 62° |
| 2026-04-30 14:02 | 14.39066 | 120.80647 | 3194 ft | 192 kts | 61° |
| 2026-04-30 14:03 | 14.39726 | 120.81837 | 3011 ft | 189 kts | 62° |
| 2026-04-30 14:03 | 14.40382 | 120.83027 | 3014 ft | 190 kts | 62° |
| 2026-04-30 14:03 | 14.41001 | 120.84139 | 3001 ft | 168 kts | 62° |
| 2026-04-30 14:03 | 14.41581 | 120.85189 | 3013 ft | 170 kts | 62° |
| 2026-04-30 14:04 | 14.42154 | 120.86226 | 2908 ft | 163 kts | 62° |
| 2026-04-30 14:04 | 14.42720 | 120.87247 | 2704 ft | 164 kts | 62° |
| 2026-04-30 14:04 | 14.43267 | 120.88233 | 2511 ft | 148 kts | 62° |
| 2026-04-30 14:04 | 14.43753 | 120.89116 | 2320 ft | 141 kts | 62° |
| 2026-04-30 14:05 | 14.44241 | 120.89994 | 2146 ft | 138 kts | 62° |
| 2026-04-30 14:05 | 14.44730 | 120.90854 | 1951 ft | 140 kts | 62° |
| 2026-04-30 14:05 | 14.45218 | 120.91714 | 1711 ft | 140 kts | 63° |
| 2026-04-30 14:05 | 14.45666 | 120.92588 | 1558 ft | 138 kts | 64° |
| 2026-04-30 14:06 | 14.46108 | 120.93473 | 1419 ft | 140 kts | 64° |
| 2026-04-30 14:06 | 14.47088 | 120.95212 | 1138 ft | 135 kts | 61° |
| 2026-04-30 14:07 | 14.48067 | 120.96944 | 736 ft | 139 kts | 60° |
| 2026-04-30 14:07 | 14.48564 | 120.97822 | 606 ft | 143 kts | 63° |
| 2026-04-30 14:07 | 14.49046 | 120.98710 | 416 ft | 143 kts | 62° |
| 2026-04-30 14:08 | 14.50030 | 121.00463 | 121 ft | 143 kts | 60° |
| 2026-04-30 14:08 | 14.50490 | 121.01282 | 58 ft | 113 kts | 60° |
| 2026-04-30 14:08 | 14.51010 | 121.02188 | 47 ft | 46 kts | 40° |
| 2026-04-30 14:09 | 14.51165 | 121.02302 | 45 ft | 14 kts | 359° |
| 2026-04-30 14:09 | 14.51196 | 121.02283 | 43 ft | 0 kts | 310° |
| 2026-04-30 14:09 | 14.51141 | 121.02161 | 44 ft | 23 kts | 240° |
| 2026-04-30 14:10 | 14.51075 | 121.02046 | 51 ft | 0 kts | 238° |
| 2026-04-30 14:10 | 14.51065 | 121.02025 | 47 ft | 6 kts | 246° |
| 2026-04-30 14:10 | 14.51080 | 121.01976 | 41 ft | 10 kts | 296° |
| 2026-04-30 14:10 | 14.51139 | 121.01918 | 39 ft | 14 kts | 320° |
| 2026-04-30 14:11 | 14.51219 | 121.01843 | 38 ft | 17 kts | 313° |
| 2026-04-30 14:11 | 14.51304 | 121.01752 | 38 ft | 19 kts | 314° |
| 2026-04-30 14:11 | 14.51397 | 121.01654 | 39 ft | 20 kts | 315° |
| 2026-04-30 14:11 | 14.51496 | 121.01551 | 40 ft | 20 kts | 313° |
| 2026-04-30 14:12 | 14.51597 | 121.01446 | 42 ft | 21 kts | 315° |
| 2026-04-30 14:12 | 14.51675 | 121.01375 | 42 ft | 2 kts | 336° |
| 2026-04-30 14:12 | 14.51703 | 121.01379 | 44 ft | 3 kts | 20° |
| 2026-04-30 14:12 | 14.51722 | 121.01392 | 44 ft | 6 kts | 35° |
| 2026-04-30 14:13 | 14.51753 | 121.01426 | 44 ft | 1 kts | 46° |
| 2026-04-30 14:13 | 14.51756 | 121.01429 | 44 ft | 0 kts | 46° |